Time;durP1;ratioP1;P1;durP2;ratioP2;P2;SDS_P1;SDS_P2;PMS_P1;PMS_P2;Temp;Humidity;BMP_temperature;BMP_pressure;BME280_temperature;BME280_humidity;BME280_pressure;Samples;Min_cycle;Max_cycle;Signal;HPM_P1;HPM_P2
2023/06/19 00:01:49;;;;;;;10.70;8.63;;;20.40;49.40;;;20.16;46.70;97541.72;5024182;28;20479;-77
2023/06/19 00:04:16;;;;;;;9.93;8.90;;;20.30;49.40;;;20.01;46.67;97536.41;5037253;28;20466;-78
2023/06/19 00:06:43;;;;;;;9.83;8.90;;;20.20;49.40;;;19.99;47.05;97539.44;5032469;28;20448;-77
2023/06/19 00:09:10;;;;;;;9.07;8.17;;;20.20;49.70;;;20.02;46.77;97544.34;5027876;28;20467;-76
2023/06/19 00:11:38;;;;;;;8.93;8.13;;;20.20;49.50;;;19.86;47.07;97518.16;5028131;28;20445;-77
2023/06/19 00:14:06;;;;;;;9.83;8.93;;;20.20;49.80;;;20.03;46.66;97539.69;5035300;28;20513;-76
2023/06/19 00:16:33;;;;;;;9.80;8.80;;;20.20;49.70;;;20.05;46.68;97532.78;5013348;28;20454;-79
2023/06/19 00:19:03;;;;;;;9.20;8.40;;;20.20;49.80;;;20.06;46.86;97539.91;5029275;28;20457;-77
2023/06/19 00:21:31;;;;;;;9.77;8.80;;;20.20;49.90;;;20.13;46.53;97525.06;5026780;28;20467;-76
2023/06/19 00:23:59;;;;;;;9.10;8.30;;;20.30;49.90;;;20.21;46.26;97535.38;5025724;28;20451;-77
2023/06/19 00:26:26;;;;;;;9.10;8.27;;;20.30;49.70;;;20.16;46.63;97532.72;5027375;28;20458;-76
2023/06/19 00:28:55;;;;;;;10.57;9.23;;;20.30;49.70;;;20.10;46.34;97524.53;5007824;28;20552;-76
2023/06/19 00:31:23;;;;;;;9.60;8.70;;;20.30;49.70;;;20.14;46.41;97523.94;5010697;28;20528;-76
2023/06/19 00:33:51;;;;;;;10.37;9.30;;;20.30;49.80;;;20.12;46.62;97543.44;5014175;28;20453;-76
2023/06/19 00:36:20;;;;;;;9.40;8.50;;;20.30;49.80;;;20.20;46.41;97533.75;5029966;28;20523;-75
2023/06/19 00:38:47;;;;;;;10.33;9.43;;;20.30;49.80;;;19.63;46.39;97463.00;5011028;28;20983;-76
2023/06/19 00:41:16;;;;;;;9.70;8.70;;;20.30;49.80;;;20.12;46.59;97526.19;5022386;28;20472;-76
2023/06/19 00:43:44;;;;;;;10.07;9.00;;;20.20;49.80;;;20.13;46.59;97527.81;5009984;28;20459;-76
2023/06/19 00:46:12;;;;;;;9.20;8.30;;;20.20;49.90;;;20.08;46.52;97532.22;5030011;28;21026;-75
2023/06/19 00:48:41;;;;;;;10.50;9.50;;;20.20;49.90;;;20.08;46.67;97537.69;5032884;28;20956;-77
2023/06/19 00:51:08;;;;;;;11.40;8.67;;;20.30;49.90;;;19.93;46.80;97535.09;5013505;28;20450;-75
2023/06/19 00:53:36;;;;;;;9.03;8.23;;;20.20;49.90;;;19.90;47.13;97535.66;5010746;28;20438;-76
2023/06/19 00:56:04;;;;;;;9.33;8.43;;;20.10;50.00;;;20.03;46.76;97543.25;5027273;28;20475;-76
2023/06/19 00:58:32;;;;;;;8.77;7.97;;;20.20;50.10;;;20.08;46.84;97545.13;4996683;28;20460;-76
2023/06/19 01:00:59;;;;;;;9.70;8.70;;;20.20;50.10;;;20.04;46.94;97541.34;5020734;28;20477;-75
2023/06/19 01:03:27;;;;;;;9.33;8.43;;;20.20;50.20;;;20.16;46.62;97535.44;5026968;28;20589;-74
2023/06/19 01:05:57;;;;;;;9.80;8.80;;;20.30;50.20;;;20.14;46.76;97541.22;5029078;28;20454;-73
2023/06/19 01:08:50;;;;;;;10.43;9.40;;;20.30;50.10;;;20.15;46.93;97542.03;5015629;28;20475;-74
2023/06/19 01:11:22;;;;;;;9.57;8.60;;;20.30;50.40;;;20.10;46.87;97534.69;5026216;28;20465;-74
2023/06/19 01:13:57;;;;;;;9.43;8.53;;;20.30;50.30;;;19.97;47.03;97533.44;5028230;28;20451;-75
2023/06/19 01:16:25;;;;;;;10.27;9.33;;;20.20;50.30;;;19.99;47.00;97533.13;5009956;28;21467;-76
2023/06/19 01:18:52;;;;;;;10.00;9.00;;;20.20;50.30;;;19.89;47.19;97539.50;5017968;28;20509;-77
2023/06/19 01:21:21;;;;;;;11.33;8.30;;;20.10;50.30;;;19.77;47.31;97526.19;5008798;28;20485;-77
2023/06/19 01:23:50;;;;;;;9.60;8.70;;;20.00;50.20;;;19.82;47.39;97539.84;5016470;28;20453;-76
2023/06/19 01:26:20;;;;;;;9.17;8.37;;;20.00;50.40;;;19.70;47.59;97532.00;5026726;28;20461;-76
2023/06/19 01:28:48;;;;;;;9.67;8.67;;;19.90;50.50;;;19.71;47.34;97530.06;5015029;28;20486;-75
2023/06/19 01:31:21;;;;;;;9.03;8.20;;;19.90;50.50;;;19.70;47.10;97536.66;5028902;28;20459;-75
2023/06/19 01:33:51;;;;;;;9.60;8.60;;;19.90;50.30;;;19.59;47.42;97524.97;5019368;28;20454;-78
2023/06/19 01:36:20;;;;;;;9.30;8.40;;;19.80;50.30;;;19.53;47.62;97522.28;5036547;28;20470;-74
2023/06/19 01:38:52;;;;;;;9.57;8.67;;;19.70;50.40;;;19.48;47.81;97519.56;5036192;28;20463;-77
2023/06/19 01:41:20;;;;;;;9.63;8.73;;;19.70;50.50;;;19.51;47.76;97523.66;5030159;28;20477;-75
2023/06/19 01:43:50;;;;;;;10.40;9.30;;;19.70;50.70;;;19.49;48.05;97528.59;5033720;28;20942;-76
2023/06/19 01:46:17;;;;;;;8.80;8.00;;;19.70;50.80;;;19.46;48.15;97526.44;5011905;28;20443;-76
2023/06/19 01:48:44;;;;;;;9.90;8.43;;;19.60;50.90;;;19.39;48.11;97532.25;5028625;28;20452;-76
2023/06/19 01:51:12;;;;;;;9.87;8.90;;;19.50;50.90;;;19.24;48.35;97514.81;5021195;28;20560;-77
2023/06/19 01:53:39;;;;;;;10.27;8.20;;;19.50;51.20;;;19.23;48.25;97524.13;5002787;28;20505;-77
2023/06/19 01:56:08;;;;;;;9.07;8.27;;;19.40;50.90;;;19.06;48.20;97497.13;5027119;28;20455;-74
2023/06/19 01:58:35;;;;;;;8.80;8.00;;;19.40;51.00;;;19.16;48.38;97526.38;5024345;28;20450;-79
2023/06/19 02:01:02;;;;;;;9.90;8.90;;;19.30;51.00;;;19.13;48.74;97535.16;5035869;28;20484;-75
2023/06/19 02:03:30;;;;;;;8.80;7.93;;;19.20;51.10;;;19.07;48.98;97544.50;5031129;28;20465;-76
2023/06/19 02:05:58;;;;;;;8.47;7.67;;;19.10;51.50;;;19.10;48.72;97541.19;5032409;28;20470;-77
2023/06/19 02:08:25;;;;;;;8.77;7.87;;;19.10;51.30;;;19.01;48.76;97531.94;5009554;28;21099;-77
2023/06/19 02:10:53;;;;;;;9.13;8.23;;;19.10;51.30;;;18.99;48.66;97545.91;5009785;28;20458;-76
2023/06/19 02:13:21;;;;;;;9.60;8.70;;;19.10;51.30;;;18.97;48.96;97543.41;5029268;28;20533;-78
2023/06/19 02:15:48;;;;;;;8.70;7.90;;;19.10;51.50;;;18.91;49.17;97536.34;5007216;28;20456;-79
2023/06/19 02:18:16;;;;;;;9.13;8.23;;;19.10;51.60;;;18.94;49.47;97538.50;5009906;28;20876;-75
2023/06/19 02:20:43;;;;;;;9.00;8.20;;;19.00;51.80;;;18.87;49.43;97529.78;5026614;28;20853;-76
2023/06/19 02:23:10;;;;;;;9.37;8.47;;;19.00;51.90;;;18.82;49.87;97540.75;5029869;28;20455;-81
2023/06/19 02:25:37;;;;;;;8.80;7.97;;;18.90;52.20;;;18.80;49.60;97543.81;5030181;28;20450;-76
2023/06/19 02:28:05;;;;;;;9.40;8.47;;;18.90;52.10;;;18.73;50.11;97542.44;5025858;28;20457;-77
2023/06/19 02:30:33;;;;;;;8.80;8.00;;;18.80;52.50;;;18.81;49.94;97534.50;5025076;28;20644;-78
2023/06/19 02:33:01;;;;;;;9.97;8.73;;;18.90;52.60;;;18.85;49.76;97537.47;5031673;28;20464;-78
2023/06/19 02:35:28;;;;;;;9.67;8.17;;;19.00;52.30;;;18.88;49.47;97536.91;5032025;28;20461;-77
2023/06/19 02:37:55;;;;;;;9.50;8.63;;;19.00;52.10;;;18.94;49.30;97540.41;5027019;28;20447;-72
2023/06/19 02:40:23;;;;;;;9.10;8.20;;;19.00;52.00;;;18.87;49.21;97537.19;5053289;28;20464;-77
2023/06/19 02:42:50;;;;;;;9.87;8.20;;;19.00;51.90;;;18.96;48.88;97539.03;5032665;28;20470;-76
2023/06/19 02:45:18;;;;;;;9.27;8.13;;;19.10;51.80;;;19.00;48.62;97536.59;5030673;28;20454;-76
2023/06/19 02:47:46;;;;;;;10.13;9.13;;;19.10;51.70;;;19.02;48.70;97533.56;5010943;28;20998;-76
2023/06/19 02:50:14;;;;;;;10.10;9.10;;;19.20;51.70;;;19.05;48.61;97522.88;5025118;28;20823;-75
2023/06/19 02:52:41;;;;;;;10.27;7.97;;;19.20;51.60;;;19.13;48.39;97526.13;5023030;28;20459;-76
2023/06/19 02:55:09;;;;;;;10.77;9.73;;;19.30;51.60;;;19.22;48.15;97521.69;5027039;28;20458;-76
2023/06/19 02:57:36;;;;;;;9.77;8.77;;;19.40;51.50;;;19.21;48.08;97528.25;5028139;28;20451;-75
2023/06/19 03:00:05;;;;;;;10.43;9.33;;;19.40;51.70;;;19.38;47.48;97536.09;5012831;28;21228;-77
2023/06/19 03:02:33;;;;;;;8.93;7.93;;;19.50;51.10;;;19.51;47.08;97540.94;5009252;28;20540;-75
2023/06/19 03:05:03;;;;;;;10.50;9.40;;;19.60;51.00;;;19.53;47.20;97548.84;5029005;28;20471;-77
2023/06/19 03:07:30;;;;;;;9.33;8.43;;;19.60;50.90;;;19.56;47.27;97548.25;5025470;28;20492;-77
2023/06/19 03:09:57;;;;;;;8.60;7.80;;;19.70;51.00;;;19.63;46.93;97547.94;5025256;28;20470;-74
2023/06/19 03:12:25;;;;;;;9.27;8.37;;;19.70;50.80;;;19.51;47.13;97546.41;5029152;28;20461;-74
2023/06/19 03:14:52;;;;;;;10.27;9.27;;;19.70;50.80;;;19.62;46.60;97552.63;5013164;28;20459;-75
2023/06/19 03:17:20;;;;;;;8.83;8.03;;;19.70;50.80;;;19.58;46.39;97545.25;5032072;28;20463;-74
2023/06/19 03:19:47;;;;;;;9.47;8.57;;;19.80;50.50;;;19.61;46.55;97564.69;5031493;28;20474;-77
2023/06/19 03:22:16;;;;;;;9.10;8.30;;;19.80;50.50;;;19.75;46.39;97567.56;5015498;28;21051;-79
2023/06/19 03:24:43;;;;;;;10.00;9.00;;;19.80;50.50;;;19.81;46.46;97571.94;5030021;28;20459;-78
2023/06/19 03:27:11;;;;;;;8.70;7.90;;;19.90;50.50;;;19.82;45.88;97589.16;5028819;28;20458;-79
2023/06/19 03:29:38;;;;;;;9.13;7.20;;;19.90;50.30;;;19.85;46.25;97590.53;5028728;28;20451;-75
2023/06/19 03:32:07;;;;;;;9.43;8.40;;;19.90;50.40;;;19.94;45.72;97591.56;5036126;28;20463;-78
2023/06/19 03:34:34;;;;;;;9.80;8.80;;;20.00;50.20;;;19.95;45.71;97591.28;5018356;28;20865;-75
2023/06/19 03:37:02;;;;;;;8.73;7.90;;;20.00;50.10;;;20.00;45.51;97601.41;5034905;28;20467;-77
2023/06/19 03:39:30;;;;;;;9.00;8.17;;;20.10;50.10;;;19.92;46.03;97602.84;5026600;28;20463;-76
2023/06/19 03:41:58;;;;;;;8.97;8.13;;;20.10;50.30;;;19.88;45.50;97603.66;5007169;28;20472;-76
2023/06/19 03:44:25;;;;;;;8.43;7.63;;;20.10;49.90;;;19.48;45.38;97579.81;5029939;28;21054;-76
2023/06/19 03:46:52;;;;;;;9.13;8.33;;;20.10;49.80;;;19.96;45.38;97614.06;5023476;28;20546;-75
2023/06/19 03:49:21;;;;;;;10.43;9.47;;;20.10;49.80;;;20.05;45.38;97617.78;5015354;28;20462;-75
2023/06/19 03:51:48;;;;;;;9.30;8.27;;;20.10;49.80;;;20.16;45.28;97621.25;5025277;28;20466;-78
2023/06/19 03:54:16;;;;;;;8.70;7.90;;;20.20;50.10;;;20.14;45.21;97606.22;5009773;28;20957;-78
2023/06/19 03:56:44;;;;;;;8.60;7.77;;;20.30;50.00;;;20.31;44.97;97634.03;5010519;28;20518;-74
2023/06/19 03:59:12;;;;;;;8.60;7.80;;;20.40;50.00;;;20.45;44.62;97634.16;5024876;28;20485;-74
2023/06/19 04:01:40;;;;;;;8.60;7.70;;;20.40;49.70;;;20.60;44.27;97629.63;5026842;28;20479;-75
2023/06/19 04:04:08;;;;;;;8.23;7.47;;;20.60;49.50;;;20.59;43.83;97637.03;5033672;28;20459;-76
2023/06/19 04:06:35;;;;;;;9.10;8.10;;;20.70;49.40;;;20.74;44.19;97627.81;5002295;28;21036;-76
2023/06/19 04:09:02;;;;;;;7.93;7.23;;;20.80;49.50;;;20.66;44.10;97633.97;5026652;28;20532;-75
2023/06/19 04:11:30;;;;;;;8.67;7.77;;;20.80;49.30;;;20.86;43.70;97629.38;5019773;28;20544;-76
2023/06/19 04:13:59;;;;;;;7.47;6.77;;;20.90;49.40;;;20.86;43.72;97627.47;5028183;28;20473;-77
2023/06/19 04:16:26;;;;;;;8.50;7.70;;;20.90;49.30;;;20.44;43.50;97552.97;5033470;28;20477;-76
2023/06/19 04:18:54;;;;;;;8.30;7.17;;;21.00;49.30;;;20.91;43.67;97623.81;5030969;28;20466;-74
2023/06/19 04:21:21;;;;;;;7.80;7.10;;;21.00;49.30;;;20.39;44.17;97547.53;5014623;28;20482;-76
2023/06/19 04:23:48;;;;;;;9.50;8.60;;;21.00;49.40;;;20.83;43.93;97627.22;5024304;28;20456;-75
2023/06/19 04:26:16;;;;;;;8.63;7.73;;;21.00;49.40;;;20.75;44.21;97625.91;5009464;28;20504;-76
2023/06/19 04:28:43;;;;;;;8.77;7.63;;;20.90;49.40;;;20.74;44.29;97624.28;5013924;28;21162;-75
2023/06/19 04:31:12;;;;;;;9.30;8.40;;;21.00;49.60;;;20.62;44.17;97594.47;5024038;28;20455;-74
2023/06/19 04:33:41;;;;;;;8.77;7.97;;;21.00;49.50;;;21.04;43.82;97616.81;5027561;28;20541;-75
2023/06/19 04:36:09;;;;;;;7.90;7.20;;;21.10;49.60;;;21.15;43.75;97632.03;5028497;28;20456;-75
2023/06/19 04:38:36;;;;;;;8.43;6.97;;;21.20;49.60;;;21.19;44.08;97635.84;5026089;28;20969;-80
2023/06/19 04:41:04;;;;;;;9.00;8.10;;;21.30;49.80;;;21.78;42.81;97643.00;5019411;28;20520;-71
2023/06/19 04:43:31;;;;;;;8.43;7.73;;;21.70;49.80;;;22.36;41.88;97632.72;5009779;28;20471;-80
2023/06/19 04:45:58;;;;;;;8.80;7.40;;;22.10;49.50;;;22.85;41.04;97638.72;5011370;28;20473;-77
2023/06/19 04:48:27;;;;;;;8.43;7.60;;;22.70;49.20;;;23.12;40.36;97648.06;5029224;28;20481;-77
2023/06/19 04:50:55;;;;;;;8.67;7.87;;;23.00;48.80;;;23.21;40.37;97640.72;5030841;28;20453;-74
2023/06/19 04:53:23;;;;;;;8.70;7.87;;;23.20;48.80;;;23.27;40.10;97643.41;5010977;28;20486;-77
2023/06/19 04:55:51;;;;;;;7.33;6.73;;;23.30;48.70;;;23.24;40.36;97638.47;5031663;28;20483;-75
2023/06/19 04:58:20;;;;;;;7.93;7.23;;;23.30;48.60;;;23.27;40.34;97646.97;5018592;28;20542;-77
2023/06/19 05:00:50;;;;;;;9.10;8.30;;;23.30;48.70;;;23.26;40.42;97641.75;5030467;28;20469;-72
2023/06/19 05:03:18;;;;;;;8.57;7.63;;;23.20;48.70;;;23.16;40.95;97649.13;5009707;28;20477;-79
2023/06/19 05:05:46;;;;;;;7.53;6.83;;;23.20;48.90;;;23.36;40.54;97647.06;5022281;28;20460;-74
2023/06/19 05:08:14;;;;;;;8.17;7.43;;;23.30;49.10;;;23.37;40.52;97645.94;5034334;28;20458;-76
2023/06/19 05:10:41;;;;;;;8.73;7.83;;;23.40;49.10;;;23.66;40.08;97638.41;5024084;28;20992;-78
2023/06/19 05:13:09;;;;;;;8.83;8.03;;;23.50;48.80;;;23.66;39.88;97644.75;5007292;28;20512;-73
2023/06/19 05:15:36;;;;;;;9.80;8.23;;;23.60;48.70;;;23.77;40.08;97651.69;5014644;28;20470;-82
2023/06/19 05:18:04;;;;;;;9.93;8.70;;;23.70;48.80;;;23.42;40.80;97643.06;4987283;28;20466;-74
2023/06/19 05:20:32;;;;;;;9.33;8.10;;;23.60;48.90;;;22.63;42.06;97593.41;5021659;28;20463;-83
2023/06/19 05:23:01;;;;;;;9.17;8.27;;;23.40;49.10;;;23.03;42.10;97649.94;5025424;28;20481;-73
2023/06/19 05:25:28;;;;;;;8.57;7.70;;;23.20;49.30;;;23.13;42.33;97646.16;5021614;28;20477;-74
2023/06/19 05:27:56;;;;;;;8.33;7.60;;;23.30;49.60;;;23.35;42.21;97650.97;5022500;28;20549;-73
2023/06/19 05:30:23;;;;;;;9.60;8.70;;;23.40;50.00;;;23.43;42.24;97664.03;5022063;28;20482;-72
2023/06/19 05:32:50;;;;;;;8.80;8.00;;;23.60;50.00;;;24.01;41.12;97658.81;5018720;28;20458;-74
2023/06/19 05:35:18;;;;;;;9.30;8.43;;;24.00;49.90;;;24.04;40.85;97661.00;5002743;28;20506;-72
2023/06/19 05:37:46;;;;;;;10.03;9.00;;;24.30;49.50;;;24.57;39.87;97664.09;5020244;28;20480;-73
2023/06/19 05:40:14;;;;;;;8.73;8.00;;;24.60;49.10;;;25.09;38.61;97664.66;5022915;28;20963;-72
2023/06/19 05:42:42;;;;;;;9.83;8.50;;;25.30;48.60;;;26.00;37.00;97667.75;5008779;28;20466;-73
2023/06/19 05:45:11;;;;;;;8.37;7.63;;;26.00;48.30;;;26.72;35.92;97667.34;5020787;28;20987;-71
2023/06/19 05:47:39;;;;;;;8.10;7.40;;;27.10;47.60;;;26.67;36.24;97661.97;5025369;28;20458;-72
2023/06/19 05:50:07;;;;;;;7.60;7.00;;;27.30;47.20;;;26.46;37.23;97675.69;5025587;28;20541;-71
2023/06/19 05:52:35;;;;;;;7.53;6.83;;;26.90;47.80;;;26.72;37.03;97677.59;5024591;28;20470;-73
2023/06/19 05:55:02;;;;;;;7.37;6.77;;;26.80;48.00;;;27.51;35.86;97684.75;5025438;28;20465;-73
2023/06/19 05:57:30;;;;;;;6.90;6.30;;;27.70;47.70;;;27.65;35.54;97684.53;5027265;28;20453;-74
2023/06/19 05:59:58;;;;;;;7.27;6.67;;;28.30;47.10;;;27.44;36.11;97691.66;5007635;28;21036;-73
2023/06/19 06:02:28;;;;;;;7.40;6.70;;;28.00;47.30;;;27.89;35.59;97700.53;5023479;28;20477;-75
2023/06/19 06:04:56;;;;;;;8.53;7.00;;;28.40;47.40;;;29.95;32.75;97697.53;5023251;28;20461;-71
2023/06/19 06:07:24;;;;;;;7.60;6.60;;;29.70;46.80;;;28.39;34.50;97701.59;5024165;28;20553;-72
2023/06/19 06:09:51;;;;;;;7.63;6.90;;;29.60;46.10;;;28.00;34.87;97715.63;5025002;28;20461;-83
2023/06/19 06:12:19;;;;;;;7.13;6.50;;;28.90;46.40;;;26.83;37.54;97717.66;5004751;28;20484;-81
2023/06/19 06:14:48;;;;;;;7.57;6.60;;;27.80;47.10;;;26.38;38.26;97713.34;5020493;28;20536;-70
2023/06/19 06:17:15;;;;;;;7.20;6.50;;;27.10;47.90;;;25.56;40.09;97713.94;5003630;28;20888;-70
2023/06/19 06:19:42;;;;;;;6.30;5.70;;;26.30;48.60;;;24.86;41.81;97712.53;5018028;28;20514;-72
2023/06/19 06:22:10;;;;;;;6.63;5.93;;;25.50;49.50;;;24.61;42.57;97717.53;5008191;28;20454;-69
2023/06/19 06:24:38;;;;;;;6.77;5.13;;;25.00;50.70;;;24.39;43.35;97717.56;5003358;28;20459;-71
2023/06/19 06:27:06;;;;;;;6.13;5.63;;;24.60;50.80;;;24.64;43.36;97726.31;5012166;28;20451;-72
2023/06/19 06:29:34;;;;;;;6.40;5.87;;;24.60;51.10;;;24.68;43.37;97719.06;5024520;28;20471;-70
2023/06/19 06:32:08;;;;;;;6.23;5.63;;;24.70;51.30;;;24.58;43.35;97718.19;5018445;28;20541;-71
2023/06/19 06:34:35;;;;;;;7.30;6.60;;;24.60;51.30;;;24.76;43.46;97729.34;5019721;28;20441;-80
2023/06/19 06:37:03;;;;;;;7.20;6.60;;;24.70;51.70;;;24.94;43.58;97732.22;5003120;28;20489;-72
2023/06/19 06:39:31;;;;;;;6.50;5.90;;;24.90;51.90;;;24.71;43.65;97735.00;5022401;28;20455;-72
2023/06/19 06:41:58;;;;;;;6.67;6.13;;;24.80;51.70;;;24.60;43.75;97738.00;5024368;28;20450;-71
2023/06/19 06:44:26;;;;;;;7.20;6.50;;;24.80;51.80;;;24.60;43.96;97735.25;5025059;28;20946;-71
2023/06/19 06:46:55;;;;;;;7.37;6.73;;;24.70;51.90;;;24.37;44.29;97739.97;5022711;28;20450;-72
2023/06/19 06:49:23;;;;;;;6.20;5.70;;;24.60;52.00;;;24.46;44.62;97743.63;5022922;28;20528;-74
2023/06/19 06:51:51;;;;;;;6.90;6.20;;;24.50;52.30;;;24.62;44.48;97746.00;5022351;28;20553;-70
2023/06/19 06:54:18;;;;;;;7.50;6.67;;;24.60;52.50;;;24.32;45.14;97751.94;5022350;28;20469;-72
2023/06/19 06:56:47;;;;;;;8.00;6.50;;;24.50;52.60;;;24.66;44.32;97751.69;5011960;28;20805;-71
2023/06/19 06:59:16;;;;;;;7.23;6.60;;;24.50;52.70;;;24.86;44.19;97756.72;5022756;28;20462;-71
2023/06/19 07:01:43;;;;;;;8.90;6.70;;;24.70;52.70;;;25.21;43.20;97749.72;5005117;28;20454;-71
2023/06/19 07:04:11;;;;;;;7.17;6.47;;;25.00;52.60;;;25.30;43.61;97756.13;5025231;28;21148;-70
2023/06/19 07:06:39;;;;;;;7.10;6.40;;;25.20;52.60;;;25.12;43.36;97727.59;5026132;28;20475;-71
2023/06/19 07:09:07;;;;;;;6.40;5.80;;;25.20;52.30;;;25.39;43.42;97754.19;5004720;28;20490;-72
2023/06/19 07:11:34;;;;;;;6.10;5.50;;;25.30;52.70;;;25.79;42.71;97753.38;5005574;28;20724;-71
2023/06/19 07:14:02;;;;;;;5.17;4.77;;;25.60;52.40;;;25.94;42.48;97756.81;5008463;28;20465;-72
2023/06/19 07:16:29;;;;;;;6.27;5.30;;;25.90;52.10;;;26.41;41.20;97750.66;5004312;28;20884;-72
2023/06/19 07:18:57;;;;;;;5.50;5.00;;;26.20;51.70;;;26.53;41.17;97758.28;5022421;28;20462;-71
2023/06/19 07:21:24;;;;;;;5.30;4.80;;;26.50;51.60;;;26.23;41.21;97758.97;5004558;28;20544;-71
2023/06/19 07:23:53;;;;;;;6.60;6.00;;;26.40;51.20;;;26.45;41.26;97762.69;5008130;28;20477;-73
2023/06/19 07:26:20;;;;;;;6.27;5.67;;;26.50;51.50;;;26.60;41.17;97766.91;5023267;28;20547;-72
2023/06/19 07:28:47;;;;;;;5.70;5.20;;;26.60;51.40;;;26.62;41.35;97766.59;5024747;28;20482;-70
2023/06/19 07:31:15;;;;;;;5.80;5.30;;;26.60;51.50;;;26.78;40.47;97753.03;5020926;28;20540;-72
2023/06/19 07:33:42;;;;;;;5.80;5.30;;;26.80;51.20;;;27.17;40.50;97766.97;5022434;28;20461;-74
2023/06/19 07:36:13;;;;;;;6.53;5.93;;;27.10;51.30;;;26.47;41.65;97765.97;5023520;28;20471;-72
2023/06/19 07:38:41;;;;;;;5.43;4.93;;;26.80;51.50;;;26.33;42.68;97771.66;5025738;28;20462;-73
2023/06/19 07:41:10;;;;;;;5.00;4.53;;;26.40;52.00;;;26.52;41.85;97763.03;5020542;28;20541;-71
2023/06/19 07:43:38;;;;;;;4.87;4.47;;;26.50;52.20;;;26.22;42.63;97771.19;5020442;28;20557;-71
2023/06/19 07:46:05;;;;;;;4.87;4.47;;;26.30;52.10;;;26.78;41.27;97756.63;5003603;28;20480;-71
2023/06/19 07:48:33;;;;;;;4.70;4.23;;;26.60;51.70;;;26.74;40.92;97777.81;5025551;28;21302;-72
2023/06/19 07:51:00;;;;;;;4.30;4.00;;;26.80;51.30;;;26.94;41.23;97778.31;5008985;28;21035;-72
2023/06/19 07:53:27;;;;;;;4.17;3.87;;;26.80;51.60;;;26.78;41.91;97773.25;5008709;28;20524;-72
2023/06/19 07:55:54;;;;;;;4.80;4.23;;;26.90;51.80;;;26.67;41.65;97772.75;5025575;28;20473;-71
2023/06/19 07:58:23;;;;;;;5.70;3.63;;;26.80;51.70;;;26.54;42.44;97771.00;5027301;28;20520;-71
2023/06/19 08:00:51;;;;;;;5.30;4.50;;;26.70;52.00;;;26.62;42.60;97772.94;5007003;28;20465;-71
2023/06/19 08:03:18;;;;;;;4.70;4.30;;;26.70;52.20;;;26.89;41.65;97770.16;5006973;28;20470;-71
2023/06/19 08:05:45;;;;;;;6.57;4.30;;;26.70;52.10;;;26.44;42.57;97792.34;5024091;28;20442;-75
2023/06/19 08:08:14;;;;;;;4.50;4.10;;;26.60;52.10;;;26.99;41.37;97787.25;5020513;28;20473;-72
2023/06/19 08:10:41;;;;;;;5.10;4.60;;;26.80;52.50;;;27.04;41.30;97777.94;5022305;28;21025;-70
2023/06/19 08:13:11;;;;;;;3.67;3.37;;;26.80;52.10;;;27.03;41.50;97781.84;5024126;28;20567;-75
2023/06/19 08:15:39;;;;;;;3.50;3.20;;;26.80;52.20;;;26.72;42.13;97792.00;5019956;28;20466;-71
2023/06/19 08:18:07;;;;;;;3.50;3.20;;;26.80;52.00;;;26.61;42.60;97798.19;5008463;28;20545;-71
2023/06/19 08:20:34;;;;;;;2.80;2.60;;;26.70;52.30;;;26.61;42.28;97807.31;4999558;28;20461;-72
2023/06/19 08:23:02;;;;;;;3.07;2.87;;;26.70;52.20;;;26.36;42.88;97797.88;5025577;28;20477;-71
2023/06/19 08:25:29;;;;;;;3.43;3.13;;;26.40;52.40;;;26.43;42.85;97792.66;5006747;28;20467;-73
2023/06/19 08:27:57;;;;;;;3.53;3.23;;;26.50;52.60;;;26.82;42.30;97804.69;5010270;28;20511;-72
2023/06/19 08:30:24;;;;;;;3.60;3.07;;;26.80;52.60;;;27.86;40.79;97806.66;5005805;28;21841;-71
2023/06/19 08:32:53;;;;;;;3.37;3.07;;;27.40;52.50;;;28.22;40.15;97794.19;5018381;28;20471;-72
2023/06/19 08:35:20;;;;;;;3.80;3.17;;;28.00;51.90;;;28.03;39.97;97799.38;5009181;28;20462;-72
2023/06/19 08:37:47;;;;;;;3.30;3.10;;;28.10;51.50;;;27.85;40.53;97794.75;5026333;28;20470;-72
2023/06/19 08:40:15;;;;;;;3.17;2.97;;;28.00;51.60;;;27.48;41.62;97801.91;5009462;28;20480;-80
2023/06/19 08:42:43;;;;;;;4.07;3.70;;;27.80;51.80;;;28.25;39.86;97793.50;5022130;28;20470;-73
2023/06/19 08:45:11;;;;;;;3.87;3.57;;;28.10;51.60;;;28.48;39.19;97804.28;5023639;28;20455;-74
2023/06/19 08:47:38;;;;;;;3.90;3.60;;;28.30;51.30;;;28.23;39.89;97798.59;5005403;28;20455;-74
2023/06/19 08:50:08;;;;;;;4.07;3.67;;;28.30;51.30;;;28.31;39.43;97796.13;5008616;28;20459;-74
2023/06/19 08:52:36;;;;;;;3.63;3.20;;;28.30;51.30;;;28.73;38.45;97804.38;5026584;28;20470;-77
2023/06/19 08:55:03;;;;;;;4.93;3.00;;;28.60;50.80;;;28.02;39.91;97797.75;5027993;28;20453;-75
2023/06/19 08:57:38;;;;;;;3.07;2.77;;;28.30;51.00;;;28.18;39.69;97801.59;5025130;28;20536;-78
2023/06/19 09:00:10;;;;;;;3.70;3.10;;;28.30;51.00;;;28.31;39.95;97810.00;5022178;28;20545;-76
2023/06/19 09:02:45;;;;;;;2.93;2.73;;;28.30;51.30;;;28.66;38.09;97760.50;5021908;28;20455;-76
2023/06/19 09:05:17;;;;;;;2.97;2.77;;;28.60;50.90;;;28.60;38.79;97809.09;5020173;28;20516;-77
2023/06/19 09:07:46;;;;;;;3.10;2.70;;;28.80;50.60;;;28.61;38.70;97796.81;5002406;28;20481;-76
2023/06/19 09:10:18;;;;;;;2.97;2.73;;;28.80;50.60;;;28.47;39.32;97797.13;5029860;28;20469;-76
2023/06/19 09:12:45;;;;;;;3.57;3.27;;;28.60;50.90;;;28.89;39.40;97796.25;5010015;28;20454;-76
2023/06/19 09:15:14;;;;;;;3.40;3.10;;;28.80;51.10;;;28.76;39.17;97794.56;5013166;28;20450;-76
2023/06/19 09:17:42;;;;;;;3.63;3.33;;;28.80;50.80;;;28.86;38.62;97787.78;5009469;28;20524;-77
2023/06/19 09:20:11;;;;;;;3.47;3.27;;;28.80;50.70;;;28.78;39.08;97793.06;5025609;28;20469;-77
2023/06/19 09:22:40;;;;;;;3.10;2.90;;;28.90;50.70;;;29.48;37.68;97796.28;5021469;28;20501;-74
2023/06/19 09:25:10;;;;;;;3.40;3.10;;;29.10;50.70;;;28.82;38.63;97788.47;5017708;28;20584;-73
2023/06/19 09:27:37;;;;;;;3.30;3.00;;;29.20;50.40;;;28.45;39.56;97793.88;5000337;28;20543;-74
2023/06/19 09:30:07;;;;;;;3.57;3.23;;;28.70;50.60;;;28.59;39.61;97788.00;5014323;28;20500;-73
2023/06/19 09:32:36;;;;;;;3.90;3.50;;;28.60;50.90;;;29.39;38.49;97786.06;5022848;28;20447;-76
2023/06/19 09:35:04;;;;;;;3.13;2.83;;;29.10;51.00;;;29.77;37.11;97794.41;5030697;28;20537;-73
2023/06/19 09:37:32;;;;;;;3.93;3.63;;;29.40;50.20;;;29.27;37.88;97783.25;5008175;28;20462;-73
2023/06/19 09:40:09;;;;;;;3.43;3.10;;;29.40;50.40;;;28.85;38.67;97787.00;5029080;28;20461;-74
2023/06/19 09:42:38;;;;;;;3.37;3.07;;;29.20;50.20;;;29.43;37.92;97774.25;5026628;28;20533;-73
2023/06/19 09:45:08;;;;;;;4.60;3.20;;;29.30;50.50;;;29.58;37.85;97783.91;5005531;28;20501;-71
2023/06/19 09:47:39;;;;;;;3.30;3.10;;;29.60;50.20;;;29.88;38.17;97786.44;5012034;28;20460;-75
2023/06/19 09:50:08;;;;;;;3.17;2.70;;;29.70;50.90;;;29.51;37.15;97721.28;5018298;28;20459;-75
2023/06/19 09:52:35;;;;;;;4.73;3.33;;;29.80;50.50;;;29.72;37.47;97780.75;5047642;28;20962;-72
2023/06/19 09:55:08;;;;;;;3.37;3.07;;;29.70;50.10;;;29.24;38.43;97783.94;5042022;28;20459;-74
2023/06/19 09:57:36;;;;;;;2.97;2.77;;;29.40;50.20;;;29.81;37.54;97782.25;5014226;28;20524;-75
2023/06/19 10:00:11;;;;;;;3.77;3.20;;;29.60;50.20;;;28.32;39.76;97772.75;5032045;28;20466;-74
2023/06/19 10:02:38;;;;;;;4.30;3.37;;;29.10;50.40;;;28.26;40.42;97770.16;5024455;28;20457;-77
2023/06/19 10:05:08;;;;;;;3.90;3.60;;;28.50;50.90;;;28.22;40.10;97772.00;5021829;28;20493;-75
2023/06/19 10:07:36;;;;;;;3.23;3.03;;;28.50;51.00;;;28.91;39.72;97765.34;5013578;28;20482;-75
2023/06/19 10:10:08;;;;;;;4.10;3.80;;;28.60;51.50;;;28.86;39.15;97762.78;5013300;28;20481;-76
2023/06/19 10:12:41;;;;;;;4.67;4.27;;;28.70;50.90;;;28.70;39.12;97768.94;5036062;28;20472;-75
2023/06/19 10:15:18;;;;;;;5.00;4.60;;;28.70;51.00;;;28.25;40.04;97770.50;5029425;28;20508;-75
2023/06/19 10:17:49;;;;;;;4.83;4.43;;;28.40;51.20;;;27.80;40.96;97774.69;5025181;28;20477;-76
2023/06/19 10:20:31;;;;;;;5.27;4.87;;;28.20;51.20;;;28.18;40.45;97761.88;5026949;28;20465;-76
2023/06/19 10:23:03;;;;;;;4.73;4.23;;;28.20;51.50;;;28.59;39.49;97773.31;5027363;28;20450;-75